sensor_id;sensor_type;location;lat;lon;timestamp;pressure;altitude;pressure_sealevel;temperature;humidity
7178;BME280;3630;42.146;24.756;2023-01-29T00:01:02;99634.22;;;5.28;65.57
7178;BME280;3630;42.146;24.756;2023-01-29T00:03:28;99622.19;;;5.24;66.55
7178;BME280;3630;42.146;24.756;2023-01-29T00:05:57;99630.13;;;5.32;65.83
7178;BME280;3630;42.146;24.756;2023-01-29T00:08:23;99582.59;;;5.10;65.48
7178;BME280;3630;42.146;24.756;2023-01-29T00:10:50;99628.75;;;5.40;65.23
7178;BME280;3630;42.146;24.756;2023-01-29T00:13:17;99634.59;;;5.38;64.54
7178;BME280;3630;42.146;24.756;2023-01-29T00:15:52;99632.84;;;5.36;65.55
7178;BME280;3630;42.146;24.756;2023-01-29T00:18:20;99630.16;;;5.33;65.51
7178;BME280;3630;42.146;24.756;2023-01-29T00:20:47;99646.44;;;5.37;65.46
7178;BME280;3630;42.146;24.756;2023-01-29T00:23:15;99636.22;;;5.35;65.01
7178;BME280;3630;42.146;24.756;2023-01-29T00:25:42;99640.47;;;5.36;65.38
7178;BME280;3630;42.146;24.756;2023-01-29T00:28:09;99639.59;;;5.36;65.67
7178;BME280;3630;42.146;24.756;2023-01-29T00:30:36;99643.03;;;5.36;65.78
7178;BME280;3630;42.146;24.756;2023-01-29T00:33:04;99656.69;;;5.38;65.37
7178;BME280;3630;42.146;24.756;2023-01-29T00:35:32;99651.59;;;5.38;65.63
7178;BME280;3630;42.146;24.756;2023-01-29T00:37:59;99651.38;;;5.32;65.13
7178;BME280;3630;42.146;24.756;2023-01-29T00:40:30;99652.75;;;5.24;65.80
7178;BME280;3630;42.146;24.756;2023-01-29T00:43:19;99658.81;;;5.28;66.28
7178;BME280;3630;42.146;24.756;2023-01-29T00:46:03;99658.06;;;5.30;66.81
7178;BME280;3630;42.146;24.756;2023-01-29T00:48:32;99655.50;;;5.30;66.19
7178;BME280;3630;42.146;24.756;2023-01-29T00:50:58;99651.88;;;5.24;65.82
7178;BME280;3630;42.146;24.756;2023-01-29T00:53:25;99656.97;;;5.24;66.53
7178;BME280;3630;42.146;24.756;2023-01-29T00:55:54;99661.06;;;5.20;65.94
7178;BME280;3630;42.146;24.756;2023-01-29T00:58:20;99656.72;;;5.18;66.73
7178;BME280;3630;42.146;24.756;2023-01-29T01:00:59;99655.19;;;5.21;66.72
7178;BME280;3630;42.146;24.756;2023-01-29T01:03:26;99654.13;;;5.16;67.08
7178;BME280;3630;42.146;24.756;2023-01-29T01:06:02;99655.06;;;5.18;66.87
7178;BME280;3630;42.146;24.756;2023-01-29T01:08:29;99646.16;;;5.09;66.59
7178;BME280;3630;42.146;24.756;2023-01-29T01:11:14;99654.06;;;5.15;66.78
7178;BME280;3630;42.146;24.756;2023-01-29T01:13:41;99623.63;;;4.97;66.85
7178;BME280;3630;42.146;24.756;2023-01-29T01:16:09;99658.25;;;5.14;66.73
7178;BME280;3630;42.146;24.756;2023-01-29T01:18:36;99659.00;;;5.12;67.02
7178;BME280;3630;42.146;24.756;2023-01-29T01:21:03;99658.00;;;5.08;66.78
7178;BME280;3630;42.146;24.756;2023-01-29T01:23:30;99658.84;;;5.07;67.58
7178;BME280;3630;42.146;24.756;2023-01-29T01:25:56;99662.94;;;5.04;68.18
7178;BME280;3630;42.146;24.756;2023-01-29T01:28:25;99657.94;;;5.05;67.63
7178;BME280;3630;42.146;24.756;2023-01-29T01:30:52;99662.06;;;5.03;67.37
7178;BME280;3630;42.146;24.756;2023-01-29T01:33:18;99668.28;;;5.10;67.56
7178;BME280;3630;42.146;24.756;2023-01-29T01:35:45;99659.63;;;5.06;67.23
7178;BME280;3630;42.146;24.756;2023-01-29T01:38:12;99669.81;;;5.06;67.67
7178;BME280;3630;42.146;24.756;2023-01-29T01:40:43;99663.97;;;5.09;67.32
7178;BME280;3630;42.146;24.756;2023-01-29T01:43:12;99663.09;;;5.08;67.87
7178;BME280;3630;42.146;24.756;2023-01-29T01:45:43;99655.69;;;5.13;67.69
7178;BME280;3630;42.146;24.756;2023-01-29T01:48:19;99656.34;;;5.09;67.39
7178;BME280;3630;42.146;24.756;2023-01-29T01:50:59;99630.31;;;4.95;67.56
7178;BME280;3630;42.146;24.756;2023-01-29T01:53:30;99655.47;;;5.08;67.41
7178;BME280;3630;42.146;24.756;2023-01-29T01:56:06;99663.19;;;5.10;67.36
7178;BME280;3630;42.146;24.756;2023-01-29T01:58:38;99663.06;;;5.07;67.54
7178;BME280;3630;42.146;24.756;2023-01-29T02:01:08;99667.16;;;5.03;68.24
7178;BME280;3630;42.146;24.756;2023-01-29T02:03:40;99661.13;;;5.01;67.49
7178;BME280;3630;42.146;24.756;2023-01-29T02:06:27;99641.34;;;4.94;68.33
7178;BME280;3630;42.146;24.756;2023-01-29T02:09:21;99658.84;;;5.07;68.68
7178;BME280;3630;42.146;24.756;2023-01-29T02:12:07;99653.13;;;5.13;68.43
7178;BME280;3630;42.146;24.756;2023-01-29T02:14:37;99663.03;;;5.27;67.35
7178;BME280;3630;42.146;24.756;2023-01-29T02:17:07;99666.53;;;5.29;66.98
7178;BME280;3630;42.146;24.756;2023-01-29T02:19:46;99678.78;;;5.38;67.29
7178;BME280;3630;42.146;24.756;2023-01-29T02:22:28;99677.59;;;5.30;67.12
7178;BME280;3630;42.146;24.756;2023-01-29T02:25:14;99675.84;;;5.29;66.80
7178;BME280;3630;42.146;24.756;2023-01-29T02:28:09;99688.75;;;5.33;67.35
7178;BME280;3630;42.146;24.756;2023-01-29T02:30:43;99681.50;;;5.22;67.53
7178;BME280;3630;42.146;24.756;2023-01-29T02:33:20;99685.97;;;5.27;66.91
7178;BME280;3630;42.146;24.756;2023-01-29T02:35:58;99692.00;;;5.29;67.68
7178;BME280;3630;42.146;24.756;2023-01-29T02:38:37;99660.78;;;5.13;67.52
7178;BME280;3630;42.146;24.756;2023-01-29T02:41:10;99687.25;;;5.38;67.71
7178;BME280;3630;42.146;24.756;2023-01-29T02:43:44;99693.19;;;5.38;67.61
7178;BME280;3630;42.146;24.756;2023-01-29T02:46:16;99698.31;;;5.39;68.18
7178;BME280;3630;42.146;24.756;2023-01-29T02:48:49;99695.34;;;5.28;68.80
7178;BME280;3630;42.146;24.756;2023-01-29T02:51:23;99694.47;;;5.28;68.76
7178;BME280;3630;42.146;24.756;2023-01-29T02:53:58;99698.78;;;5.29;69.06
7178;BME280;3630;42.146;24.756;2023-01-29T02:56:33;99697.16;;;5.31;69.48
7178;BME280;3630;42.146;24.756;2023-01-29T02:59:06;99697.22;;;5.32;69.81
7178;BME280;3630;42.146;24.756;2023-01-29T03:01:37;99695.72;;;5.38;69.52
7178;BME280;3630;42.146;24.756;2023-01-29T03:04:09;99694.84;;;5.37;69.43
7178;BME280;3630;42.146;24.756;2023-01-29T03:06:40;99704.16;;;5.36;70.03
7178;BME280;3630;42.146;24.756;2023-01-29T03:09:11;99700.63;;;5.33;70.04
7178;BME280;3630;42.146;24.756;2023-01-29T03:11:43;99703.16;;;5.33;69.73
7178;BME280;3630;42.146;24.756;2023-01-29T03:14:15;99685.97;;;5.27;69.97
7178;BME280;3630;42.146;24.756;2023-01-29T03:16:47;99704.75;;;5.29;70.35
7178;BME280;3630;42.146;24.756;2023-01-29T03:19:18;99702.25;;;5.31;70.38
7178;BME280;3630;42.146;24.756;2023-01-29T03:21:49;99684.69;;;5.16;69.12
7178;BME280;3630;42.146;24.756;2023-01-29T03:24:25;99716.34;;;5.23;69.25
7178;BME280;3630;42.146;24.756;2023-01-29T03:27:15;99710.50;;;5.25;69.42
7178;BME280;3630;42.146;24.756;2023-01-29T03:30:04;99714.25;;;5.13;69.48
7178;BME280;3630;42.146;24.756;2023-01-29T03:32:50;99714.25;;;5.13;68.85
7178;BME280;3630;42.146;24.756;2023-01-29T03:35:20;99710.03;;;5.13;69.28
7178;BME280;3630;42.146;24.756;2023-01-29T03:37:58;99715.03;;;5.12;70.10
7178;BME280;3630;42.146;24.756;2023-01-29T03:40:26;99726.16;;;5.14;69.53
7178;BME280;3630;42.146;24.756;2023-01-29T03:43:00;99706.09;;;5.01;69.39
7178;BME280;3630;42.146;24.756;2023-01-29T03:45:38;99727.38;;;5.03;69.62
7178;BME280;3630;42.146;24.756;2023-01-29T03:48:12;99723.13;;;5.02;70.02
7178;BME280;3630;42.146;24.756;2023-01-29T03:50:49;99731.88;;;5.08;70.20
7178;BME280;3630;42.146;24.756;2023-01-29T03:53:23;99729.09;;;5.02;70.33
7178;BME280;3630;42.146;24.756;2023-01-29T03:55:56;99732.72;;;5.09;70.71
7178;BME280;3630;42.146;24.756;2023-01-29T03:58:33;99738.72;;;5.09;69.92
7178;BME280;3630;42.146;24.756;2023-01-29T04:01:10;99739.59;;;5.10;69.98
7178;BME280;3630;42.146;24.756;2023-01-29T04:03:45;99740.47;;;5.10;70.64
7178;BME280;3630;42.146;24.756;2023-01-29T04:06:16;99739.63;;;5.11;70.49
7178;BME280;3630;42.146;24.756;2023-01-29T04:08:48;99748.16;;;5.12;70.68
7178;BME280;3630;42.146;24.756;2023-01-29T04:11:18;99749.59;;;5.05;70.92
7178;BME280;3630;42.146;24.756;2023-01-29T04:13:46;99748.72;;;5.05;71.33
7178;BME280;3630;42.146;24.756;2023-01-29T04:16:22;99763.03;;;5.03;71.80
7178;BME280;3630;42.146;24.756;2023-01-29T04:18:52;99766.19;;;4.97;71.62
7178;BME280;3630;42.146;24.756;2023-01-29T04:21:20;99758.84;;;4.84;72.64
7178;BME280;3630;42.146;24.756;2023-01-29T04:23:47;99764.06;;;4.87;73.59
7178;BME280;3630;42.146;24.756;2023-01-29T04:26:34;99765.34;;;4.97;73.10
7178;BME280;3630;42.146;24.756;2023-01-29T04:29:17;99761.91;;;4.96;73.56
7178;BME280;3630;42.146;24.756;2023-01-29T04:34:47;99769.81;;;5.02;73.50
7178;BME280;3630;42.146;24.756;2023-01-29T04:37:22;99770.88;;;5.07;74.08
7178;BME280;3630;42.146;24.756;2023-01-29T04:39:55;99777.69;;;5.08;73.65
7178;BME280;3630;42.146;24.756;2023-01-29T04:42:29;99774.84;;;5.01;74.14
7178;BME280;3630;42.146;24.756;2023-01-29T04:45:02;99771.63;;;5.05;74.12
7178;BME280;3630;42.146;24.756;2023-01-29T04:47:35;99732.41;;;4.81;74.95
7178;BME280;3630;42.146;24.756;2023-01-29T04:50:12;99769.88;;;5.04;75.91
7178;BME280;3630;42.146;24.756;2023-01-29T04:52:46;99785.56;;;4.94;76.59
7178;BME280;3630;42.146;24.756;2023-01-29T04:55:20;99788.72;;;4.88;76.74
7178;BME280;3630;42.146;24.756;2023-01-29T04:58:01;99785.91;;;4.82;77.26
7178;BME280;3630;42.146;24.756;2023-01-29T05:00:32;99786.72;;;4.81;77.93
7178;BME280;3630;42.146;24.756;2023-01-29T05:03:02;99788.19;;;4.76;78.52
7178;BME280;3630;42.146;24.756;2023-01-29T05:05:35;99791.41;;;4.72;79.06
7178;BME280;3630;42.146;24.756;2023-01-29T05:08:03;99794.75;;;4.71;79.31
7178;BME280;3630;42.146;24.756;2023-01-29T05:10:31;99797.31;;;4.71;78.30
7178;BME280;3630;42.146;24.756;2023-01-29T05:13:00;99792.94;;;4.68;79.57
7178;BME280;3630;42.146;24.756;2023-01-29T05:15:32;99801.38;;;4.67;79.85
7178;BME280;3630;42.146;24.756;2023-01-29T05:18:02;99801.97;;;4.62;80.21
7178;BME280;3630;42.146;24.756;2023-01-29T05:20:35;99803.78;;;4.64;80.34
7178;BME280;3630;42.146;24.756;2023-01-29T05:23:02;99792.03;;;4.66;80.76
7178;BME280;3630;42.146;24.756;2023-01-29T05:25:32;99803.41;;;4.74;80.34
7178;BME280;3630;42.146;24.756;2023-01-29T05:27:59;99802.66;;;4.77;79.92
7178;BME280;3630;42.146;24.756;2023-01-29T05:30:34;99806.81;;;4.75;80.77
7178;BME280;3630;42.146;24.756;2023-01-29T05:33:04;99805.81;;;4.71;79.96
7178;BME280;3630;42.146;24.756;2023-01-29T05:35:31;99812.16;;;4.81;80.17
7178;BME280;3630;42.146;24.756;2023-01-29T05:37:59;99817.66;;;4.90;80.88
7178;BME280;3630;42.146;24.756;2023-01-29T05:40:25;99816.72;;;4.88;79.87
7178;BME280;3630;42.146;24.756;2023-01-29T05:42:52;99815.91;;;4.89;79.74
7178;BME280;3630;42.146;24.756;2023-01-29T05:45:19;99816.88;;;4.91;79.72
7178;BME280;3630;42.146;24.756;2023-01-29T05:47:46;99817.72;;;4.92;78.68
7178;BME280;3630;42.146;24.756;2023-01-29T05:50:15;99821.28;;;4.95;78.56
7178;BME280;3630;42.146;24.756;2023-01-29T05:52:42;99821.28;;;4.95;78.19
7178;BME280;3630;42.146;24.756;2023-01-29T05:55:09;99824.69;;;4.96;77.81
7178;BME280;3630;42.146;24.756;2023-01-29T05:57:38;99838.44;;;4.99;77.86
7178;BME280;3630;42.146;24.756;2023-01-29T06:00:06;99835.94;;;5.01;77.59
7178;BME280;3630;42.146;24.756;2023-01-29T06:02:33;99830.06;;;5.02;77.32
7178;BME280;3630;42.146;24.756;2023-01-29T06:05:00;99836.16;;;5.05;77.26
7178;BME280;3630;42.146;24.756;2023-01-29T06:07:28;99830.84;;;5.01;76.88
7178;BME280;3630;42.146;24.756;2023-01-29T06:09:55;99844.41;;;5.00;77.75
7178;BME280;3630;42.146;24.756;2023-01-29T06:12:21;99843.66;;;5.02;77.71
7178;BME280;3630;42.146;24.756;2023-01-29T06:14:48;99848.91;;;5.05;77.70
7178;BME280;3630;42.146;24.756;2023-01-29T06:17:15;99842.69;;;5.00;77.77
7178;BME280;3630;42.146;24.756;2023-01-29T06:19:41;99852.97;;;5.02;78.11
7178;BME280;3630;42.146;24.756;2023-01-29T06:22:08;99848.53;;;4.98;77.62
7178;BME280;3630;42.146;24.756;2023-01-29T06:24:36;99855.44;;;5.00;78.35
7178;BME280;3630;42.146;24.756;2023-01-29T06:27:03;99854.91;;;5.07;77.87
7178;BME280;3630;42.146;24.756;2023-01-29T06:29:30;99864.38;;;5.10;77.43
7178;BME280;3630;42.146;24.756;2023-01-29T06:31:57;99864.41;;;5.11;77.79
7178;BME280;3630;42.146;24.756;2023-01-29T06:34:23;99869.59;;;5.13;77.38
7178;BME280;3630;42.146;24.756;2023-01-29T06:36:50;99868.06;;;5.16;76.75
7178;BME280;3630;42.146;24.756;2023-01-29T06:39:17;99872.31;;;5.17;76.02
7178;BME280;3630;42.146;24.756;2023-01-29T06:41:45;99876.28;;;5.30;75.61
7178;BME280;3630;42.146;24.756;2023-01-29T06:44:12;99881.88;;;5.42;74.57
7178;BME280;3630;42.146;24.756;2023-01-29T06:46:39;99884.53;;;5.44;73.71
7178;BME280;3630;42.146;24.756;2023-01-29T06:49:05;99867.66;;;5.47;73.86
7178;BME280;3630;42.146;24.756;2023-01-29T06:51:32;99877.31;;;5.54;72.63
7178;BME280;3630;42.146;24.756;2023-01-29T06:53:59;99886.91;;;5.60;73.26
7178;BME280;3630;42.146;24.756;2023-01-29T06:56:26;99889.19;;;5.54;72.40
7178;BME280;3630;42.146;24.756;2023-01-29T06:58:54;99892.88;;;5.60;72.07
7178;BME280;3630;42.146;24.756;2023-01-29T07:01:21;99889.19;;;5.54;71.87
7178;BME280;3630;42.146;24.756;2023-01-29T07:03:48;99898.50;;;5.53;72.14
7178;BME280;3630;42.146;24.756;2023-01-29T07:06:15;99900.25;;;5.54;71.46
7178;BME280;3630;42.146;24.756;2023-01-29T07:08:42;99899.78;;;5.63;72.60
7178;BME280;3630;42.146;24.756;2023-01-29T07:11:09;99903.69;;;5.55;71.37
7178;BME280;3630;42.146;24.756;2023-01-29T07:13:36;99904.06;;;5.64;72.84
7178;BME280;3630;42.146;24.756;2023-01-29T07:16:04;99911.56;;;5.61;71.79
7178;BME280;3630;42.146;24.756;2023-01-29T07:18:32;99901.44;;;5.62;71.95
7178;BME280;3630;42.146;24.756;2023-01-29T07:21:03;99911.50;;;5.59;73.03
7178;BME280;3630;42.146;24.756;2023-01-29T07:23:30;99842.38;;;5.12;73.31
7178;BME280;3630;42.146;24.756;2023-01-29T07:26:00;99910.50;;;5.56;74.07
7178;BME280;3630;42.146;24.756;2023-01-29T07:28:27;99915.72;;;5.59;74.58
7178;BME280;3630;42.146;24.756;2023-01-29T07:30:55;99904.25;;;5.68;74.24
7178;BME280;3630;42.146;24.756;2023-01-29T07:33:24;99905.81;;;5.65;73.71
7178;BME280;3630;42.146;24.756;2023-01-29T07:35:51;99910.28;;;5.70;73.23
7178;BME280;3630;42.146;24.756;2023-01-29T07:38:18;99904.72;;;5.79;73.50
7178;BME280;3630;42.146;24.756;2023-01-29T07:40:44;99910.94;;;5.85;72.43
7178;BME280;3630;42.146;24.756;2023-01-29T07:43:11;99912.81;;;5.89;72.13
7178;BME280;3630;42.146;24.756;2023-01-29T07:45:39;99907.84;;;5.92;72.15
7178;BME280;3630;42.146;24.756;2023-01-29T07:48:08;99917.69;;;6.04;72.15
7178;BME280;3630;42.146;24.756;2023-01-29T07:50:36;99919.03;;;5.96;71.79
7178;BME280;3630;42.146;24.756;2023-01-29T07:53:04;99909.91;;;6.01;70.82
7178;BME280;3630;42.146;24.756;2023-01-29T07:55:31;99912.94;;;6.13;71.68
7178;BME280;3630;42.146;24.756;2023-01-29T07:58:00;99919.06;;;6.17;71.43
7178;BME280;3630;42.146;24.756;2023-01-29T08:00:27;99889.59;;;5.83;72.01
7178;BME280;3630;42.146;24.756;2023-01-29T08:03:01;99926.00;;;6.00;72.54
7178;BME280;3630;42.146;24.756;2023-01-29T08:05:27;99929.22;;;5.96;72.45
7178;BME280;3630;42.146;24.756;2023-01-29T08:07:56;99892.09;;;5.82;72.77
7178;BME280;3630;42.146;24.756;2023-01-29T08:10:23;99934.72;;;6.05;72.53
7178;BME280;3630;42.146;24.756;2023-01-29T08:12:53;99931.72;;;5.94;72.76
7178;BME280;3630;42.146;24.756;2023-01-29T08:15:20;99938.59;;;5.96;73.63
7178;BME280;3630;42.146;24.756;2023-01-29T08:17:47;99939.56;;;5.99;73.45
7178;BME280;3630;42.146;24.756;2023-01-29T08:20:14;99931.28;;;6.05;73.69
7178;BME280;3630;42.146;24.756;2023-01-29T08:22:41;99929.94;;;5.92;74.63
7178;BME280;3630;42.146;24.756;2023-01-29T08:25:09;99935.56;;;6.04;75.13
7178;BME280;3630;42.146;24.756;2023-01-29T08:27:36;99934.47;;;5.99;73.96
7178;BME280;3630;42.146;24.756;2023-01-29T08:30:04;99930.19;;;6.19;74.04
7178;BME280;3630;42.146;24.756;2023-01-29T08:32:31;99945.34;;;6.16;73.46
7178;BME280;3630;42.146;24.756;2023-01-29T08:34:58;99942.75;;;6.14;74.99
7178;BME280;3630;42.146;24.756;2023-01-29T08:37:25;99940.75;;;6.28;74.29
7178;BME280;3630;42.146;24.756;2023-01-29T08:39:52;99938.63;;;6.38;73.71
7178;BME280;3630;42.146;24.756;2023-01-29T08:42:20;99942.59;;;6.52;73.48
7178;BME280;3630;42.146;24.756;2023-01-29T08:44:47;99942.91;;;6.60;72.68
7178;BME280;3630;42.146;24.756;2023-01-29T08:47:13;99946.31;;;6.61;71.96
7178;BME280;3630;42.146;24.756;2023-01-29T08:49:40;99962.28;;;6.55;72.25
7178;BME280;3630;42.146;24.756;2023-01-29T08:52:07;99960.31;;;6.48;72.13
7178;BME280;3630;42.146;24.756;2023-01-29T08:54:34;99954.19;;;6.44;72.49
7178;BME280;3630;42.146;24.756;2023-01-29T08:57:00;99952.66;;;6.48;73.41
7178;BME280;3630;42.146;24.756;2023-01-29T08:59:29;99953.97;;;6.61;73.75
7178;BME280;3630;42.146;24.756;2023-01-29T09:01:55;99957.66;;;6.67;73.26
7178;BME280;3630;42.146;24.756;2023-01-29T09:04:22;99948.75;;;6.58;73.25
7178;BME280;3630;42.146;24.756;2023-01-29T09:06:49;99949.00;;;6.64;73.60
7178;BME280;3630;42.146;24.756;2023-01-29T09:09:16;99946.97;;;6.77;73.08
7178;BME280;3630;42.146;24.756;2023-01-29T09:11:43;99947.09;;;6.80;72.26
7178;BME280;3630;42.146;24.756;2023-01-29T09:14:10;99961.94;;;6.90;72.08
7178;BME280;3630;42.146;24.756;2023-01-29T09:16:40;99940.81;;;6.72;72.52
7178;BME280;3630;42.146;24.756;2023-01-29T09:19:07;99949.94;;;6.88;72.81
7178;BME280;3630;42.146;24.756;2023-01-29T09:21:34;99948.53;;;6.96;72.49
7178;BME280;3630;42.146;24.756;2023-01-29T09:24:01;99940.75;;;6.93;72.63
7178;BME280;3630;42.146;24.756;2023-01-29T09:26:27;99941.50;;;6.90;72.38
7178;BME280;3630;42.146;24.756;2023-01-29T09:28:54;99944.16;;;6.92;73.22
7178;BME280;3630;42.146;24.756;2023-01-29T09:31:21;99948.81;;;6.81;73.20
7178;BME280;3630;42.146;24.756;2023-01-29T09:33:49;99942.88;;;6.81;73.17
7178;BME280;3630;42.146;24.756;2023-01-29T09:36:16;99948.41;;;6.71;73.66
7178;BME280;3630;42.146;24.756;2023-01-29T09:38:43;99944.19;;;6.71;74.23
7178;BME280;3630;42.146;24.756;2023-01-29T09:41:21;99940.88;;;6.74;73.70
7178;BME280;3630;42.146;24.756;2023-01-29T09:43:54;99933.16;;;6.72;73.41
7178;BME280;3630;42.146;24.756;2023-01-29T09:46:29;99937.03;;;6.85;73.52
7178;BME280;3630;42.146;24.756;2023-01-29T09:49:02;99938.31;;;6.96;73.06
7178;BME280;3630;42.146;24.756;2023-01-29T09:51:36;99930.53;;;6.93;71.99
7178;BME280;3630;42.146;24.756;2023-01-29T09:54:13;99930.09;;;6.81;72.67
7178;BME280;3630;42.146;24.756;2023-01-29T09:56:44;99922.25;;;6.76;72.24
7178;BME280;3630;42.146;24.756;2023-01-29T09:59:12;99924.63;;;6.94;72.34
7178;BME280;3630;42.146;24.756;2023-01-29T10:01:48;99925.72;;;7.00;72.03
7178;BME280;3630;42.146;24.756;2023-01-29T10:07:44;99926.38;;;6.95;71.87
7178;BME280;3630;42.146;24.756;2023-01-29T10:10:25;99926.38;;;6.95;71.73
7178;BME280;3630;42.146;24.756;2023-01-29T10:13:02;99897.31;;;6.69;71.60
7178;BME280;3630;42.146;24.756;2023-01-29T10:15:41;99913.19;;;6.84;72.36
7178;BME280;3630;42.146;24.756;2023-01-29T10:21:11;99830.03;;;6.69;70.21
7178;BME280;3630;42.146;24.756;2023-01-29T10:23:45;99904.56;;;7.27;70.02
7178;BME280;3630;42.146;24.756;2023-01-29T10:26:13;99905.31;;;7.24;69.51
7178;BME280;3630;42.146;24.756;2023-01-29T10:28:41;99900.19;;;7.24;69.28
7178;BME280;3630;42.146;24.756;2023-01-29T10:31:13;99882.44;;;7.27;69.35
7178;BME280;3630;42.146;24.756;2023-01-29T10:33:47;99900.84;;;7.42;68.92
7178;BME280;3630;42.146;24.756;2023-01-29T10:36:19;99897.94;;;7.57;68.36
7178;BME280;3630;42.146;24.756;2023-01-29T10:38:49;99870.06;;;7.39;67.89
7178;BME280;3630;42.146;24.756;2023-01-29T10:41:30;99883.22;;;7.75;66.54
7178;BME280;3630;42.146;24.756;2023-01-29T10:44:17;99881.50;;;7.74;65.80
7178;BME280;3630;42.146;24.756;2023-01-29T10:46:57;99885.31;;;7.87;65.67
7178;BME280;3630;42.146;24.756;2023-01-29T10:49:42;99877.28;;;8.01;65.58
7178;BME280;3630;42.146;24.756;2023-01-29T10:52:26;99871.53;;;8.08;64.21
7178;BME280;3630;42.146;24.756;2023-01-29T10:55:04;99866.31;;;8.05;64.65
7178;BME280;3630;42.146;24.756;2023-01-29T10:57:45;99870.84;;;8.14;64.40
7178;BME280;3630;42.146;24.756;2023-01-29T11:00:19;99849.94;;;8.00;64.32
7178;BME280;3630;42.146;24.756;2023-01-29T11:02:49;99869.41;;;8.22;63.42
7178;BME280;3630;42.146;24.756;2023-01-29T11:05:24;99853.72;;;8.11;63.34
7178;BME280;3630;42.146;24.756;2023-01-29T11:08:02;99868.94;;;8.07;63.56
7178;BME280;3630;42.146;24.756;2023-01-29T11:10:32;99863.63;;;8.01;63.33
7178;BME280;3630;42.146;24.756;2023-01-29T11:13:04;99859.38;;;8.01;63.93
7178;BME280;3630;42.146;24.756;2023-01-29T11:15:31;99856.06;;;8.05;64.23
7178;BME280;3630;42.146;24.756;2023-01-29T11:18:10;99862.28;;;8.12;63.13
7178;BME280;3630;42.146;24.756;2023-01-29T11:20:41;99846.00;;;8.10;63.07
7178;BME280;3630;42.146;24.756;2023-01-29T11:23:24;99849.16;;;8.28;62.62
7178;BME280;3630;42.146;24.756;2023-01-29T11:25:52;99852.59;;;8.28;61.90
7178;BME280;3630;42.146;24.756;2023-01-29T11:28:35;99846.38;;;8.22;62.26
7178;BME280;3630;42.146;24.756;2023-01-29T11:31:02;99826.56;;;8.16;62.05
7178;BME280;3630;42.146;24.756;2023-01-29T11:33:30;99834.41;;;8.21;62.53
7178;BME280;3630;42.146;24.756;2023-01-29T11:35:57;99826.75;;;8.21;61.81
7178;BME280;3630;42.146;24.756;2023-01-29T11:38:26;99814.69;;;7.92;62.17
7178;BME280;3630;42.146;24.756;2023-01-29T11:41:04;99821.44;;;8.15;61.82
7178;BME280;3630;42.146;24.756;2023-01-29T11:43:32;99814.72;;;8.18;61.23
7178;BME280;3630;42.146;24.756;2023-01-29T11:46:00;99823.94;;;8.40;61.18
7178;BME280;3630;42.146;24.756;2023-01-29T11:48:34;99823.81;;;8.65;60.07
7178;BME280;3630;42.146;24.756;2023-01-29T11:51:05;99821.25;;;8.65;59.32
7178;BME280;3630;42.146;24.756;2023-01-29T11:53:38;99821.91;;;8.58;59.21
7178;BME280;3630;42.146;24.756;2023-01-29T11:56:17;99821.19;;;8.62;59.16
7178;BME280;3630;42.146;24.756;2023-01-29T11:58:47;99811.31;;;8.46;58.92
7178;BME280;3630;42.146;24.756;2023-01-29T12:01:17;99800.91;;;8.40;59.65
7178;BME280;3630;42.146;24.756;2023-01-29T12:03:50;99810.50;;;8.47;58.81
7178;BME280;3630;42.146;24.756;2023-01-29T12:06:20;99808.13;;;8.53;59.11
7178;BME280;3630;42.146;24.756;2023-01-29T12:08:54;99791.34;;;8.35;59.31
7178;BME280;3630;42.146;24.756;2023-01-29T12:11:28;99802.53;;;8.38;59.03
7178;BME280;3630;42.146;24.756;2023-01-29T12:13:58;99795.88;;;8.43;58.93
7178;BME280;3630;42.146;24.756;2023-01-29T12:16:28;99795.13;;;8.47;58.63
7178;BME280;3630;42.146;24.756;2023-01-29T12:19:06;99777.69;;;8.34;58.26
7178;BME280;3630;42.146;24.756;2023-01-29T12:21:38;99788.78;;;8.35;57.92
7178;BME280;3630;42.146;24.756;2023-01-29T12:24:21;99792.06;;;8.30;58.53
7178;BME280;3630;42.146;24.756;2023-01-29T12:26:54;99788.94;;;8.41;57.92
7178;BME280;3630;42.146;24.756;2023-01-29T12:29:30;99787.31;;;8.43;57.34
7178;BME280;3630;42.146;24.756;2023-01-29T12:32:06;99784.78;;;8.44;57.44
7178;BME280;3630;42.146;24.756;2023-01-29T12:34:44;99772.09;;;8.47;57.69
7178;BME280;3630;42.146;24.756;2023-01-29T12:37:20;99780.03;;;8.56;57.48
7178;BME280;3630;42.146;24.756;2023-01-29T12:39:50;99774.06;;;8.57;57.25
7178;BME280;3630;42.146;24.756;2023-01-29T12:42:19;99769.69;;;8.53;57.12
7178;BME280;3630;42.146;24.756;2023-01-29T12:44:50;99770.00;;;8.64;57.03
7178;BME280;3630;42.146;24.756;2023-01-29T12:47:21;99776.72;;;8.60;56.70
7178;BME280;3630;42.146;24.756;2023-01-29T12:49:51;99786.06;;;8.58;56.95
7178;BME280;3630;42.146;24.756;2023-01-29T12:52:22;99777.47;;;8.56;56.92
7178;BME280;3630;42.146;24.756;2023-01-29T12:54:57;99780.03;;;8.56;56.16
7178;BME280;3630;42.146;24.756;2023-01-29T12:57:33;99783.38;;;8.54;56.36
7178;BME280;3630;42.146;24.756;2023-01-29T13:00:05;99779.75;;;8.47;56.04
7178;BME280;3630;42.146;24.756;2023-01-29T13:02:36;99784.16;;;8.51;56.26
7178;BME280;3630;42.146;24.756;2023-01-29T13:05:16;99781.63;;;8.53;56.37
7178;BME280;3630;42.146;24.756;2023-01-29T13:07:46;99773.81;;;8.48;55.95
7178;BME280;3630;42.146;24.756;2023-01-29T13:10:19;99771.13;;;8.44;56.69
7178;BME280;3630;42.146;24.756;2023-01-29T13:12:51;99777.50;;;8.58;56.44
7178;BME280;3630;42.146;24.756;2023-01-29T13:15:23;99780.75;;;8.52;56.00
7178;BME280;3630;42.146;24.756;2023-01-29T13:17:56;99779.88;;;8.52;55.82
7178;BME280;3630;42.146;24.756;2023-01-29T13:20:27;99750.16;;;8.27;55.81
7178;BME280;3630;42.146;24.756;2023-01-29T13:22:57;99791.56;;;8.42;55.17
7178;BME280;3630;42.146;24.756;2023-01-29T13:25:29;99782.00;;;8.37;54.85
7178;BME280;3630;42.146;24.756;2023-01-29T13:27:55;99784.59;;;8.38;55.21
7178;BME280;3630;42.146;24.756;2023-01-29T13:30:28;99782.31;;;8.47;55.41
7178;BME280;3630;42.146;24.756;2023-01-29T13:32:57;99779.72;;;8.46;54.08
7178;BME280;3630;42.146;24.756;2023-01-29T13:35:34;99783.97;;;8.45;53.93
7178;BME280;3630;42.146;24.756;2023-01-29T13:38:03;99783.00;;;8.42;53.69
7178;BME280;3630;42.146;24.756;2023-01-29T13:40:32;99782.19;;;8.43;53.93
7178;BME280;3630;42.146;24.756;2023-01-29T13:43:01;99760.47;;;8.30;54.24
7178;BME280;3630;42.146;24.756;2023-01-29T13:45:33;99780.63;;;8.48;54.07
7178;BME280;3630;42.146;24.756;2023-01-29T13:48:08;99780.44;;;8.40;53.61
7178;BME280;3630;42.146;24.756;2023-01-29T13:50:37;99777.19;;;8.46;53.16
7178;BME280;3630;42.146;24.756;2023-01-29T13:53:06;99777.00;;;8.40;53.50